createdAt,value
2019-03-28T00:00:49.427Z,24.20
2019-03-28T00:03:22.469Z,24.60
2019-03-28T00:05:55.209Z,24.70
2019-03-28T00:08:28.293Z,24.50
2019-03-28T00:11:01.394Z,24.60
2019-03-28T00:13:35.387Z,24.80
2019-03-28T00:16:08.015Z,24.90
2019-03-28T00:18:46.915Z,24.70
2019-03-28T00:21:19.548Z,24.50
2019-03-28T00:24:03.474Z,24.30
2019-03-28T00:26:37.156Z,24.40
2019-03-28T00:29:14.854Z,24.50
2019-03-28T00:31:47.966Z,24.90
2019-03-28T00:34:21.430Z,24.60
2019-03-28T00:36:57.184Z,24.60
2019-03-28T00:39:30.106Z,24.50
2019-03-28T00:42:02.701Z,24.50
2019-03-28T00:44:35.477Z,24.40
2019-03-28T00:47:08.022Z,24.60
2019-03-28T00:49:40.826Z,24.50
2019-03-28T00:52:13.421Z,24.50
2019-03-28T00:54:46.259Z,24.70
2019-03-28T00:57:19.253Z,24.90
2019-03-28T00:59:52.104Z,25.30
2019-03-28T01:02:24.764Z,25.00
2019-03-28T01:04:57.744Z,25.00
2019-03-28T01:07:30.334Z,25.50
2019-03-28T01:10:03.043Z,25.80
2019-03-28T01:12:37.687Z,25.40
2019-03-28T01:15:11.827Z,25.60
2019-03-28T01:17:44.400Z,25.70
2019-03-28T01:20:17.497Z,25.80
2019-03-28T01:22:50.167Z,25.80
2019-03-28T01:25:22.961Z,25.40
2019-03-28T01:27:57.151Z,25.90
2019-03-28T01:30:29.844Z,25.20
2019-03-28T01:33:02.408Z,25.10
2019-03-28T01:35:36.626Z,25.10
2019-03-28T01:38:09.231Z,24.90
2019-03-28T01:40:42.017Z,24.80
2019-03-28T01:43:16.766Z,25.10
2019-03-28T01:45:49.630Z,25.40
2019-03-28T01:48:22.234Z,25.10
2019-03-28T01:50:55.292Z,25.30
2019-03-28T01:53:27.899Z,25.20
2019-03-28T01:56:00.573Z,25.30
2019-03-28T01:58:33.141Z,25.10
2019-03-28T02:01:05.748Z,25.30
2019-03-28T02:03:38.348Z,25.20
2019-03-28T02:06:11.015Z,24.90
2019-03-28T02:08:43.610Z,25.10
2019-03-28T02:11:17.628Z,25.10
2019-03-28T02:13:50.287Z,25.30
2019-03-28T02:16:23.233Z,25.30
2019-03-28T02:18:55.821Z,25.50
2019-03-28T02:21:28.995Z,25.10
2019-03-28T02:24:01.572Z,25.10
2019-03-28T02:26:34.456Z,25.50
2019-03-28T02:29:07.310Z,25.50
2019-03-28T02:31:40.434Z,25.50
2019-03-28T02:34:13.060Z,25.40
2019-03-28T02:36:47.938Z,25.40
2019-03-28T02:39:20.533Z,25.40
2019-03-28T02:41:53.421Z,25.10
2019-03-28T02:44:26.049Z,25.20
2019-03-28T02:47:01.335Z,25.20
2019-03-28T02:49:34.341Z,25.40
2019-03-28T02:52:07.611Z,25.10
2019-03-28T02:54:40.170Z,25.10
2019-03-28T02:57:19.222Z,24.90
2019-03-28T02:59:51.831Z,25.00
2019-03-28T03:02:26.183Z,24.90
2019-03-28T03:04:59.813Z,24.80
2019-03-28T03:07:32.578Z,24.70
2019-03-28T03:10:05.541Z,24.60
2019-03-28T03:12:38.218Z,24.60
2019-03-28T03:15:16.338Z,25.00
2019-03-28T03:17:49.164Z,25.40
2019-03-28T03:20:21.719Z,25.20
2019-03-28T03:22:54.830Z,25.00
2019-03-28T03:25:27.694Z,24.80
2019-03-28T03:28:02.261Z,24.90
2019-03-28T03:30:34.867Z,25.10
2019-03-28T03:33:12.132Z,25.30
2019-03-28T03:35:44.831Z,25.40
2019-03-28T03:38:21.648Z,25.00
2019-03-28T03:40:55.772Z,25.10
2019-03-28T03:43:28.666Z,25.30
2019-03-28T03:46:01.796Z,24.60
2019-03-28T03:48:34.707Z,24.50
2019-03-28T03:51:07.363Z,24.40
2019-03-28T03:53:40.632Z,24.60
2019-03-28T03:56:13.224Z,24.50
2019-03-28T03:58:47.334Z,24.40
2019-03-28T04:01:19.913Z,24.30
2019-03-28T04:03:58.079Z,24.10
2019-03-28T04:06:30.728Z,24.10
2019-03-28T04:09:06.427Z,24.20
2019-03-28T04:11:39.284Z,24.30
2019-03-28T04:14:16.021Z,24.40
2019-03-28T04:16:48.642Z,24.30
2019-03-28T04:19:21.299Z,24.10
2019-03-28T04:21:53.930Z,24.10
2019-03-28T04:24:27.031Z,24.00
2019-03-28T04:26:59.660Z,24.10
2019-03-28T04:29:32.531Z,24.00
2019-03-28T04:32:05.139Z,24.10
2019-03-28T04:34:37.958Z,24.10
2019-03-28T04:37:10.732Z,24.20
2019-03-28T04:39:48.872Z,24.20
2019-03-28T04:42:21.472Z,24.20
2019-03-28T04:44:54.348Z,24.10
2019-03-28T04:47:30.004Z,24.10
2019-03-28T04:50:06.023Z,24.00
2019-03-28T04:52:38.716Z,24.30
2019-03-28T04:55:12.261Z,24.50
2019-03-28T04:57:44.917Z,24.30
2019-03-28T05:00:21.784Z,24.20
2019-03-28T05:02:54.412Z,24.40
2019-03-28T05:05:27.476Z,24.50
2019-03-28T05:08:00.111Z,24.40
2019-03-28T05:10:34.358Z,24.20
2019-03-28T05:13:10.460Z,24.30
2019-03-28T05:15:43.274Z,24.30
2019-03-28T05:18:17.390Z,24.40
2019-03-28T05:20:50.196Z,24.30
2019-03-28T05:23:23.057Z,24.50
2019-03-28T05:25:56.392Z,24.50
2019-03-28T05:28:29.020Z,24.40
2019-03-28T05:31:03.309Z,24.50
2019-03-28T05:33:35.992Z,24.30
2019-03-28T05:36:08.735Z,24.40
2019-03-28T05:38:41.413Z,24.40
2019-03-28T05:41:17.520Z,24.40
2019-03-28T05:43:50.553Z,24.40
2019-03-28T05:46:23.205Z,24.20
2019-03-28T05:48:55.896Z,24.20
2019-03-28T05:51:28.546Z,24.20
2019-03-28T05:54:01.201Z,24.10
2019-03-28T05:56:42.159Z,23.90
2019-03-28T05:59:14.742Z,23.90
2019-03-28T06:01:47.704Z,23.90
2019-03-28T06:04:20.545Z,23.90
2019-03-28T06:06:53.464Z,23.80
2019-03-28T06:09:26.106Z,24.00
2019-03-28T06:11:59.040Z,24.10
2019-03-28T06:14:31.639Z,24.10
2019-03-28T06:17:04.401Z,24.00
2019-03-28T06:19:40.049Z,23.90
2019-03-28T06:22:13.424Z,24.20
2019-03-28T06:24:46.437Z,24.00
2019-03-28T06:27:19.411Z,24.10
2019-03-28T06:29:52.544Z,24.00
2019-03-28T06:32:25.759Z,23.80
2019-03-28T06:35:00.305Z,23.90
2019-03-28T06:37:32.987Z,23.80
2019-03-28T06:40:07.682Z,23.80
2019-03-28T06:42:40.672Z,23.50
2019-03-28T06:45:13.672Z,23.70
2019-03-28T06:47:46.592Z,23.70
2019-03-28T06:50:19.261Z,23.60
2019-03-28T06:52:52.110Z,23.60
2019-03-28T06:55:25.583Z,23.30
2019-03-28T06:57:58.636Z,23.60
2019-03-28T07:00:31.255Z,23.30
2019-03-28T07:03:03.983Z,23.20
2019-03-28T07:05:36.604Z,23.20
2019-03-28T07:08:09.377Z,23.50
2019-03-28T07:10:42.239Z,23.20
2019-03-28T07:13:14.959Z,23.40
2019-03-28T07:15:47.570Z,23.40
2019-03-28T07:18:20.281Z,23.20
2019-03-28T07:20:52.913Z,23.10
2019-03-28T07:23:25.497Z,23.00
2019-03-28T07:25:59.443Z,23.10
2019-03-28T07:28:32.284Z,22.90
2019-03-28T07:31:04.984Z,22.80
2019-03-28T07:33:37.778Z,22.70
2019-03-28T07:36:10.533Z,22.60
2019-03-28T07:38:43.166Z,22.30
2019-03-28T07:41:16.574Z,22.10
2019-03-28T07:43:50.291Z,22.10
2019-03-28T07:46:22.929Z,22.20
2019-03-28T07:48:57.521Z,22.30
2019-03-28T07:51:30.124Z,22.10
2019-03-28T07:54:02.962Z,22.20
2019-03-28T07:56:35.538Z,22.30
2019-03-28T07:59:08.733Z,22.30
2019-03-28T08:01:42.607Z,22.20
2019-03-28T08:04:15.210Z,21.90
2019-03-28T08:06:50.079Z,21.70
2019-03-28T08:09:22.142Z,21.70
2019-03-28T08:11:54.757Z,21.80
2019-03-28T08:14:27.675Z,22.00
2019-03-28T08:17:00.612Z,21.80
2019-03-28T08:19:33.543Z,21.60
2019-03-28T08:22:06.143Z,21.50
2019-03-28T08:24:38.782Z,21.20
2019-03-28T08:27:11.406Z,21.50
2019-03-28T08:29:44.334Z,20.90
2019-03-28T08:32:20.445Z,20.10
2019-03-28T08:34:53.193Z,20.50
2019-03-28T08:37:26.168Z,20.20
2019-03-28T08:39:59.185Z,19.70
2019-03-28T08:42:31.834Z,19.80
2019-03-28T08:45:04.864Z,19.50
2019-03-28T08:47:37.405Z,19.70
2019-03-28T08:50:10.360Z,19.40
2019-03-28T08:52:43.025Z,19.70
2019-03-28T08:55:17.503Z,19.70
2019-03-28T08:57:50.080Z,19.80
2019-03-28T09:00:33.151Z,19.70
2019-03-28T09:02:57.631Z,19.70
2019-03-28T09:05:30.376Z,20.70
2019-03-28T09:08:03.012Z,20.20
2019-03-28T09:10:36.039Z,20.10
2019-03-28T09:13:08.676Z,19.80
2019-03-28T09:15:44.051Z,20.00
2019-03-28T09:18:16.618Z,19.80
2019-03-28T09:20:49.541Z,19.50
2019-03-28T09:23:22.111Z,19.70
2019-03-28T09:25:54.998Z,19.90
2019-03-28T09:28:27.611Z,19.80
2019-03-28T09:31:00.978Z,19.20
2019-03-28T09:33:34.209Z,19.20
2019-03-28T09:36:07.058Z,19.50
2019-03-28T09:38:39.622Z,19.90
2019-03-28T09:41:12.356Z,19.20
2019-03-28T09:43:55.183Z,19.50
2019-03-28T09:46:20.252Z,19.50
2019-03-28T09:48:52.852Z,18.90
2019-03-28T09:51:25.802Z,18.80
2019-03-28T09:53:58.450Z,18.80
2019-03-28T09:56:31.260Z,19.50
2019-03-28T09:59:03.901Z,18.90
2019-03-28T10:01:36.823Z,18.60
2019-03-28T10:04:09.559Z,18.60
2019-03-28T10:06:42.402Z,19.00
2019-03-28T10:09:15.162Z,18.80
2019-03-28T10:11:48.165Z,18.50
2019-03-28T10:14:20.777Z,18.80
2019-03-28T10:16:53.933Z,18.90
2019-03-28T10:19:26.540Z,18.50
2019-03-28T10:21:59.401Z,19.00
2019-03-28T10:24:32.773Z,18.60
2019-03-28T10:27:05.581Z,18.60
2019-03-28T10:29:38.376Z,18.00
2019-03-28T10:32:11.333Z,18.10
2019-03-28T10:34:43.916Z,18.10
2019-03-28T10:37:16.707Z,17.90
2019-03-28T10:39:49.285Z,17.00
2019-03-28T10:42:22.169Z,17.50
2019-03-28T10:44:54.866Z,17.20
2019-03-28T10:47:28.160Z,17.80
2019-03-28T10:50:03.748Z,17.60
2019-03-28T10:52:35.372Z,17.60
2019-03-28T10:55:08.395Z,17.60
2019-03-28T10:57:41.321Z,17.90
2019-03-28T11:00:23.914Z,17.90
2019-03-28T11:02:49.580Z,17.60
2019-03-28T11:05:22.585Z,18.00
2019-03-28T11:07:55.534Z,17.60
2019-03-28T11:10:30.583Z,17.00
2019-03-28T11:13:09.530Z,17.20
2019-03-28T11:15:41.114Z,17.30
2019-03-28T11:18:14.271Z,17.80
2019-03-28T11:20:47.275Z,17.50
2019-03-28T11:23:21.957Z,17.50
2019-03-28T11:25:57.373Z,17.20
2019-03-28T11:28:29.480Z,17.30
2019-03-28T11:31:02.127Z,17.10
2019-03-28T11:33:35.353Z,17.30
2019-03-28T11:36:07.965Z,17.70
2019-03-28T11:38:40.564Z,18.10
2019-03-28T11:41:13.172Z,17.50
2019-03-28T11:43:46.258Z,17.50
2019-03-28T11:46:18.872Z,17.50
2019-03-28T11:48:52.067Z,17.50
2019-03-28T11:51:26.735Z,17.60
2019-03-28T11:53:59.441Z,17.70
2019-03-28T11:56:32.147Z,16.70
2019-03-28T11:59:06.583Z,17.40
2019-03-28T12:01:39.473Z,17.60
2019-03-28T12:04:12.309Z,17.20
2019-03-28T12:06:45.000Z,16.90
2019-03-28T12:09:17.775Z,16.60
2019-03-28T12:11:52.941Z,17.10
2019-03-28T12:14:24.801Z,16.80
2019-03-28T12:16:57.485Z,16.90
2019-03-28T12:19:30.649Z,16.50
2019-03-28T12:22:03.237Z,16.90
2019-03-28T12:24:39.143Z,16.80
2019-03-28T12:27:11.805Z,17.20
2019-03-28T12:29:44.759Z,17.10
2019-03-28T12:32:17.361Z,16.60
2019-03-28T12:34:50.312Z,16.30
2019-03-28T12:37:25.517Z,16.40
2019-03-28T12:40:00.001Z,16.20
2019-03-28T12:42:31.807Z,16.50
2019-03-28T12:45:06.472Z,15.90
2019-03-28T12:47:42.839Z,16.10
2019-03-28T12:50:15.003Z,15.90
2019-03-28T12:52:48.946Z,16.30
2019-03-28T12:55:21.909Z,16.90
2019-03-28T12:57:54.616Z,16.00
2019-03-28T13:00:38.865Z,15.40
2019-03-28T13:03:11.537Z,15.70
2019-03-28T13:05:44.674Z,15.30
2019-03-28T13:08:17.783Z,15.00
2019-03-28T13:10:50.890Z,14.20
2019-03-28T13:13:26.165Z,13.60
2019-03-28T13:15:58.750Z,13.50
2019-03-28T13:18:36.014Z,12.60
2019-03-28T13:21:13.865Z,12.90
2019-03-28T13:23:43.366Z,12.40
2019-03-28T13:26:16.007Z,12.00
2019-03-28T13:28:49.924Z,11.70
2019-03-28T13:31:22.557Z,12.00
2019-03-28T13:33:55.167Z,11.10
2019-03-28T13:36:30.921Z,10.00
2019-03-28T13:39:04.025Z,10.00
2019-03-28T13:41:38.063Z,10.30
2019-03-28T13:44:12.216Z,10.00
2019-03-28T13:46:45.251Z,10.40
2019-03-28T13:49:17.809Z,9.80
2019-03-28T13:51:50.833Z,10.10
2019-03-28T13:54:23.518Z,10.30
2019-03-28T13:56:56.347Z,10.60
2019-03-28T13:59:29.038Z,10.60
2019-03-28T14:02:01.634Z,10.40
2019-03-28T14:04:34.309Z,10.30
2019-03-28T14:07:07.585Z,9.80
2019-03-28T14:09:42.711Z,9.10
2019-03-28T14:12:15.906Z,9.30
2019-03-28T14:14:48.485Z,9.60
2019-03-28T14:17:21.389Z,9.00
2019-03-28T14:19:54.007Z,9.20
2019-03-28T14:22:27.206Z,8.90
2019-03-28T14:24:59.787Z,9.40
2019-03-28T14:27:32.513Z,8.10
2019-03-28T14:30:09.350Z,8.00
2019-03-28T14:32:52.501Z,8.10
2019-03-28T14:35:14.777Z,7.90
2019-03-28T14:37:47.561Z,8.20
2019-03-28T14:40:22.869Z,8.00
2019-03-28T14:42:55.961Z,7.70
2019-03-28T14:45:28.661Z,7.90
2019-03-28T14:48:01.374Z,7.70
2019-03-28T14:50:40.190Z,8.40
2019-03-28T14:53:13.023Z,8.20
2019-03-28T14:55:46.101Z,8.80
2019-03-28T14:58:21.947Z,8.60
2019-03-28T15:00:55.645Z,9.10
2019-03-28T15:03:29.787Z,9.10
2019-03-28T15:06:02.410Z,9.10
2019-03-28T15:08:35.476Z,9.10
2019-03-28T15:11:08.195Z,9.00
2019-03-28T15:13:40.990Z,8.60
2019-03-28T15:16:13.603Z,8.60
2019-03-28T15:18:47.608Z,9.10
2019-03-28T15:21:20.248Z,8.70
2019-03-28T15:23:53.031Z,8.70
2019-03-28T15:26:25.669Z,8.30
2019-03-28T15:28:58.464Z,8.40
2019-03-28T15:31:31.013Z,8.20
2019-03-28T15:34:03.904Z,8.50
2019-03-28T15:36:36.548Z,8.40
2019-03-28T15:39:10.495Z,8.80
2019-03-28T15:41:44.987Z,9.20
2019-03-28T15:44:17.920Z,9.50
2019-03-28T15:46:51.517Z,10.20
2019-03-28T15:49:24.914Z,11.10
2019-03-28T15:51:57.677Z,11.30
2019-03-28T15:54:30.639Z,11.30
2019-03-28T15:57:03.280Z,11.70
2019-03-28T15:59:35.977Z,11.80
2019-03-28T16:02:09.196Z,12.40
2019-03-28T16:04:42.112Z,12.80
2019-03-28T16:07:14.743Z,13.10
2019-03-28T16:09:47.467Z,13.60
2019-03-28T16:12:20.035Z,13.80
2019-03-28T16:14:52.917Z,13.50
2019-03-28T16:17:25.678Z,13.70
2019-03-28T16:19:58.581Z,13.70
2019-03-28T16:22:31.308Z,13.40
2019-03-28T16:25:04.276Z,13.10
2019-03-28T16:27:36.901Z,13.10
2019-03-28T16:30:12.580Z,13.30
2019-03-28T16:32:45.183Z,13.30
2019-03-28T16:35:21.367Z,13.50
2019-03-28T16:37:54.514Z,14.00
2019-03-28T16:40:27.425Z,14.40
2019-03-28T16:43:00.117Z,14.40
2019-03-28T16:45:33.003Z,14.80
2019-03-28T16:48:07.708Z,15.20
2019-03-28T16:50:40.400Z,15.40
2019-03-28T16:53:13.038Z,15.70
2019-03-28T16:55:46.069Z,15.80
2019-03-28T16:58:19.808Z,16.00
2019-03-28T17:00:52.944Z,16.10
2019-03-28T17:03:25.610Z,16.40
2019-03-28T17:05:59.451Z,16.60
2019-03-28T17:08:34.420Z,16.90
2019-03-28T17:11:11.821Z,17.00
2019-03-28T17:13:46.121Z,17.20
2019-03-28T17:16:18.720Z,17.30
2019-03-28T17:18:52.808Z,17.50
2019-03-28T17:21:25.456Z,17.50
2019-03-28T17:23:58.045Z,17.50
2019-03-28T17:26:31.043Z,17.70
2019-03-28T17:29:03.757Z,17.80
2019-03-28T17:31:38.797Z,18.00
2019-03-28T17:34:11.453Z,18.00
2019-03-28T17:36:44.791Z,18.20
2019-03-28T17:39:18.592Z,18.20
2019-03-28T17:41:52.096Z,18.60
2019-03-28T17:44:25.012Z,18.40
2019-03-28T17:46:57.837Z,18.30
2019-03-28T17:49:30.635Z,18.30
2019-03-28T17:52:03.506Z,18.40
2019-03-28T17:54:36.214Z,18.50
2019-03-28T17:57:10.837Z,18.40
2019-03-28T17:59:45.312Z,18.40
2019-03-28T18:02:17.887Z,18.50
2019-03-28T18:04:50.545Z,18.40
2019-03-28T18:07:25.035Z,18.70
2019-03-28T18:09:57.636Z,18.80
2019-03-28T18:12:31.217Z,18.50
2019-03-28T18:15:03.990Z,18.60
2019-03-28T18:17:37.290Z,18.70
2019-03-28T18:20:11.040Z,18.60
2019-03-28T18:22:44.154Z,18.80
2019-03-28T18:25:16.880Z,18.80
2019-03-28T18:27:49.569Z,19.00
2019-03-28T18:30:23.189Z,18.90
2019-03-28T18:32:56.392Z,18.70
2019-03-28T18:35:29.072Z,18.60
2019-03-28T18:38:01.845Z,18.50
2019-03-28T18:40:34.401Z,18.50
2019-03-28T18:43:07.088Z,18.60
2019-03-28T18:45:39.750Z,18.60
2019-03-28T18:48:26.941Z,18.60
2019-03-28T18:50:46.881Z,18.40
2019-03-28T18:53:19.731Z,18.30
2019-03-28T18:55:52.634Z,18.30
2019-03-28T18:58:25.783Z,18.50
2019-03-28T19:00:58.557Z,18.40
2019-03-28T19:03:31.798Z,18.40
2019-03-28T19:06:04.923Z,18.50
2019-03-28T19:08:37.910Z,18.60
2019-03-28T19:11:11.452Z,18.60
2019-03-28T19:13:45.174Z,18.60
2019-03-28T19:16:21.612Z,18.60
2019-03-28T19:18:53.259Z,18.40
2019-03-28T19:21:25.990Z,18.70
2019-03-28T19:24:00.542Z,18.60
2019-03-28T19:26:33.162Z,18.60
2019-03-28T19:29:06.240Z,18.70
2019-03-28T19:31:39.021Z,18.70
2019-03-28T19:34:11.669Z,18.70
2019-03-28T19:36:45.112Z,18.70
2019-03-28T19:39:32.437Z,18.80
2019-03-28T19:42:05.171Z,18.70
2019-03-28T19:44:38.187Z,18.70
2019-03-28T19:47:12.902Z,18.70
2019-03-28T19:49:45.787Z,18.80
2019-03-28T19:52:18.409Z,18.80
2019-03-28T19:54:51.121Z,18.90
2019-03-28T19:57:23.838Z,19.00
2019-03-28T19:59:58.614Z,19.10
2019-03-28T20:02:31.037Z,19.10
2019-03-28T20:05:03.826Z,19.30
2019-03-28T20:07:36.588Z,19.20
2019-03-28T20:10:16.104Z,19.30
2019-03-28T20:12:45.182Z,19.30
2019-03-28T20:15:19.886Z,20.00
2019-03-28T20:17:52.644Z,19.40
2019-03-28T20:20:25.647Z,19.40
2019-03-28T20:22:58.250Z,19.40
2019-03-28T20:25:31.209Z,19.30
2019-03-28T20:28:04.016Z,19.40
2019-03-28T20:30:36.967Z,19.40
2019-03-28T20:33:09.731Z,19.40
2019-03-28T20:35:42.659Z,19.40
2019-03-28T20:38:16.758Z,19.50
2019-03-28T20:40:50.774Z,19.50
2019-03-28T20:43:25.117Z,19.50
2019-03-28T20:45:58.503Z,19.50
2019-03-28T20:48:31.152Z,19.70
2019-03-28T20:51:03.883Z,19.80
2019-03-28T20:53:37.216Z,19.80
2019-03-28T20:56:10.969Z,19.80
2019-03-28T20:58:43.838Z,19.80
2019-03-28T21:01:16.704Z,19.80
2019-03-28T21:03:49.813Z,19.90
2019-03-28T21:06:23.314Z,19.80
2019-03-28T21:08:55.936Z,19.80
2019-03-28T21:11:29.626Z,19.80
2019-03-28T21:14:02.633Z,19.80
2019-03-28T21:16:36.342Z,19.70
2019-03-28T21:19:09.384Z,19.60
2019-03-28T21:21:44.572Z,19.50
2019-03-28T21:24:16.674Z,19.60
2019-03-28T21:26:49.607Z,19.40
2019-03-28T21:29:22.273Z,19.30
2019-03-28T21:31:55.545Z,19.30
2019-03-28T21:34:28.268Z,19.30
2019-03-28T21:37:01.309Z,19.20
2019-03-28T21:39:39.962Z,19.20
2019-03-28T21:42:12.364Z,19.20
2019-03-28T21:44:45.086Z,19.20
2019-03-28T21:47:18.589Z,19.20
2019-03-28T21:49:51.761Z,19.20
2019-03-28T21:52:24.559Z,19.20
2019-03-28T21:54:57.212Z,19.10
2019-03-28T21:57:31.855Z,19.30
2019-03-28T22:00:08.450Z,19.30
2019-03-28T22:02:44.078Z,19.30
2019-03-28T22:05:16.747Z,19.30
2019-03-28T22:07:49.681Z,19.30
2019-03-28T22:10:22.450Z,19.30
2019-03-28T22:12:55.897Z,19.50
2019-03-28T22:15:28.993Z,19.60
2019-03-28T22:18:02.319Z,19.60
2019-03-28T22:20:35.020Z,19.70
2019-03-28T22:23:09.035Z,19.70
2019-03-28T22:25:41.654Z,19.70
2019-03-28T22:28:14.396Z,19.80
2019-03-28T22:30:47.107Z,19.80
2019-03-28T22:33:19.925Z,19.80
2019-03-28T22:35:52.521Z,19.80
2019-03-28T22:38:25.191Z,19.90
2019-03-28T22:40:57.742Z,19.90
2019-03-28T22:43:30.769Z,20.00
2019-03-28T22:46:03.358Z,20.00
2019-03-28T22:48:36.318Z,20.00
2019-03-28T22:51:09.255Z,20.00
2019-03-28T22:53:42.221Z,20.00
2019-03-28T22:56:14.848Z,20.10
2019-03-28T22:58:47.523Z,20.10
2019-03-28T23:01:20.303Z,20.00
2019-03-28T23:03:55.065Z,20.00
2019-03-28T23:06:27.703Z,20.00
2019-03-28T23:09:00.527Z,20.00
2019-03-28T23:11:34.911Z,20.10
2019-03-28T23:14:08.376Z,20.10
2019-03-28T23:16:40.950Z,20.10
2019-03-28T23:19:13.608Z,20.10
2019-03-28T23:21:46.186Z,20.20
2019-03-28T23:24:18.853Z,20.60
2019-03-28T23:26:51.641Z,20.10
2019-03-28T23:29:24.673Z,20.10
2019-03-28T23:31:57.357Z,20.00
2019-03-28T23:34:30.633Z,20.10
2019-03-28T23:37:03.266Z,20.00
2019-03-28T23:39:36.280Z,20.20
2019-03-28T23:42:08.924Z,20.10
2019-03-28T23:44:41.638Z,20.40
2019-03-28T23:47:14.673Z,20.20
2019-03-28T23:49:48.042Z,20.10
2019-03-28T23:52:22.235Z,20.10
2019-03-28T23:54:55.132Z,20.10
2019-03-28T23:57:28.815Z,20.10
